Time;durP1;ratioP1;P1;durP2;ratioP2;P2;SDS_P1;SDS_P2;PMS_P1;PMS_P2;Temp;Humidity;BMP_temperature;BMP_pressure;BME280_temperature;BME280_humidity;BME280_pressure;Samples;Min_cycle;Max_cycle;Signal;HPM_P1;HPM_P2
2021/10/05 00:01:30;;;;;;;36.53;15.60;;;;;;;;;;5060591;28;20138;-67
2021/10/05 00:03:57;;;;;;;34.42;15.98;;;;;;;;;;5062175;28;20106;-67
2021/10/05 00:06:23;;;;;;;37.70;15.37;;;;;;;;;;5061577;28;20064;-67
2021/10/05 00:08:49;;;;;;;43.15;15.63;;;;;;;;;;5060521;28;20503;-67
2021/10/05 00:11:16;;;;;;;51.80;15.27;;;;;;;;;;5063376;28;20681;-67
2021/10/05 00:13:43;;;;;;;41.97;15.77;;;;;;;;;;5060805;28;20139;-67
2021/10/05 00:16:09;;;;;;;43.83;16.27;;;;;;;;;;5063460;28;20144;-67
2021/10/05 00:18:36;;;;;;;35.40;15.35;;;;;;;;;;5067255;28;20051;-68
2021/10/05 00:21:03;;;;;;;45.00;17.50;;;;;;;;;;5063725;28;20557;-67
2021/10/05 00:23:30;;;;;;;45.33;17.30;;;;;;;;;;5061306;28;20049;-67
2021/10/05 00:25:57;;;;;;;35.07;16.87;;;;;;;;;;5065894;28;20068;-67
2021/10/05 00:28:23;;;;;;;52.45;18.60;;;;;;;;;;5064221;28;20160;-67
2021/10/05 00:30:49;;;;;;;44.92;16.58;;;;;;;;;;5064850;28;20576;-68
2021/10/05 00:33:16;;;;;;;43.25;18.15;;;;;;;;;;5066127;28;20051;-67
2021/10/05 00:35:43;;;;;;;38.03;17.77;;;;;;;;;;5062917;28;20041;-67
2021/10/05 00:38:09;;;;;;;55.05;20.25;;;;;;;;;;5061786;28;20045;-67
2021/10/05 00:40:36;;;;;;;41.03;18.73;;;;;;;;;;5064041;28;20049;-67
2021/10/05 00:43:02;;;;;;;41.55;19.00;;;;;;;;;;5047559;28;20139;-67
2021/10/05 00:45:29;;;;;;;38.00;18.88;;;;;;;;;;5061440;28;20044;-67
2021/10/05 00:47:55;;;;;;;46.75;17.58;;;;;;;;;;5068360;28;20127;-67
2021/10/05 00:50:22;;;;;;;47.60;18.77;;;;;;;;;;5069585;28;20127;-67
2021/10/05 00:52:49;;;;;;;37.00;19.75;;;;;;;;;;5070158;28;20131;-67
2021/10/05 00:55:17;;;;;;;48.38;19.73;;;;;;;;;;5066123;28;20048;-67
2021/10/05 00:57:48;;;;;;;50.17;20.13;;;;;;;;;;5068222;28;20040;-68
2021/10/05 01:00:15;;;;;;;42.60;19.05;;;;;;;;;;5069524;28;20483;-67
2021/10/05 01:02:42;;;;;;;49.63;18.70;;;;;;;;;;5063907;28;20040;-67
2021/10/05 01:05:09;;;;;;;42.95;19.40;;;;;;;;;;5068798;28;20048;-67
2021/10/05 01:07:35;;;;;;;50.97;20.00;;;;;;;;;;5064872;28;20044;-67
2021/10/05 01:10:03;;;;;;;61.83;22.70;;;;;;;;;;5065165;28;20107;-67
2021/10/05 01:12:30;;;;;;;47.90;20.40;;;;;;;;;;5069438;28;20119;-67
2021/10/05 01:14:56;;;;;;;45.50;20.52;;;;;;;;;;5067669;28;20067;-67
2021/10/05 01:17:23;;;;;;;52.75;20.33;;;;;;;;;;5070643;28;20186;-67
2021/10/05 01:19:49;;;;;;;53.33;21.67;;;;;;;;;;5065595;28;20144;-67
2021/10/05 01:22:16;;;;;;;46.95;19.98;;;;;;;;;;5069072;28;20059;-67
2021/10/05 01:24:42;;;;;;;49.93;20.60;;;;;;;;;;5048847;28;20132;-67
2021/10/05 01:27:11;;;;;;;54.88;20.92;;;;;;;;;;5067350;28;20547;-67
2021/10/05 01:29:37;;;;;;;52.08;21.08;;;;;;;;;;5068750;28;20052;-67
2021/10/05 01:32:04;;;;;;;46.80;20.20;;;;;;;;;;5064009;28;20040;-67
2021/10/05 01:34:31;;;;;;;39.67;19.30;;;;;;;;;;5066820;28;20045;-67
2021/10/05 01:36:58;;;;;;;40.95;21.02;;;;;;;;;;5061645;28;20479;-67
2021/10/05 01:39:30;;;;;;;52.45;20.27;;;;;;;;;;5069368;28;20183;-67
2021/10/05 01:42:00;;;;;;;59.97;20.88;;;;;;;;;;5067434;28;20152;-67
2021/10/05 01:44:27;;;;;;;42.85;19.33;;;;;;;;;;5068147;28;20132;-67
2021/10/05 01:46:53;;;;;;;42.17;20.38;;;;;;;;;;5064234;28;20147;-67
2021/10/05 01:49:20;;;;;;;51.63;19.67;;;;;;;;;;5069478;28;20072;-67
2021/10/05 01:51:47;;;;;;;49.38;18.52;;;;;;;;;;5059396;28;20083;-67
2021/10/05 01:54:14;;;;;;;38.53;19.23;;;;;;;;;;5050769;28;20471;-67
2021/10/05 01:56:41;;;;;;;32.80;17.63;;;;;;;;;;5056255;28;20659;-67
2021/10/05 01:59:07;;;;;;;47.55;18.27;;;;;;;;;;5064022;28;20147;-67
2021/10/05 02:01:34;;;;;;;53.85;19.67;;;;;;;;;;5065227;28;20171;-67
2021/10/05 02:04:01;;;;;;;43.50;19.00;;;;;;;;;;5064229;28;20056;-67
2021/10/05 02:06:28;;;;;;;38.67;18.43;;;;;;;;;;5066587;28;20075;-67
2021/10/05 02:08:54;;;;;;;36.38;15.93;;;;;;;;;;5064219;28;20131;-68
2021/10/05 02:11:21;;;;;;;44.38;17.40;;;;;;;;;;5065613;28;20541;-67
2021/10/05 02:13:48;;;;;;;43.85;18.13;;;;;;;;;;5067218;28;20123;-68
2021/10/05 02:16:14;;;;;;;41.70;18.48;;;;;;;;;;5067935;28;20182;-67
2021/10/05 02:18:46;;;;;;;49.47;18.27;;;;;;;;;;5069102;28;20043;-68
2021/10/05 02:21:16;;;;;;;44.40;18.50;;;;;;;;;;5064139;28;20083;-67
2021/10/05 02:26:36;;;;;;;39.58;18.30;;;;;;;;;;5033943;28;20072;-67
2021/10/05 02:29:03;;;;;;;41.57;18.17;;;;;;;;;;5066140;28;20064;-67
2021/10/05 02:31:30;;;;;;;47.28;19.02;;;;;;;;;;5066436;28;20356;-67
2021/10/05 02:33:57;;;;;;;42.80;18.40;;;;;;;;;;5066689;28;20080;-67
2021/10/05 02:36:23;;;;;;;43.08;18.65;;;;;;;;;;5063731;28;20135;-67
2021/10/05 02:38:50;;;;;;;36.50;16.73;;;;;;;;;;5065807;28;20135;-68
2021/10/05 02:41:16;;;;;;;38.07;18.90;;;;;;;;;;5066629;28;20075;-67
2021/10/05 02:43:43;;;;;;;36.88;19.17;;;;;;;;;;5064669;28;20169;-67
2021/10/05 02:46:09;;;;;;;41.42;16.98;;;;;;;;;;5064636;28;20068;-67
2021/10/05 02:48:36;;;;;;;47.65;19.83;;;;;;;;;;5064934;28;20048;-67
2021/10/05 02:51:02;;;;;;;45.00;18.48;;;;;;;;;;5059410;28;20045;-67
2021/10/05 02:53:29;;;;;;;45.63;19.73;;;;;;;;;;5066581;28;20119;-67
2021/10/05 02:55:56;;;;;;;37.37;18.13;;;;;;;;;;5063078;28;20175;-67
2021/10/05 02:58:22;;;;;;;44.60;19.80;;;;;;;;;;5063989;28;20148;-67
2021/10/05 03:00:48;;;;;;;41.65;17.77;;;;;;;;;;5058966;28;20102;-67
2021/10/05 03:03:15;;;;;;;51.70;18.00;;;;;;;;;;5066233;28;20110;-67
2021/10/05 03:05:42;;;;;;;52.35;18.05;;;;;;;;;;5063282;28;20087;-67
2021/10/05 03:08:08;;;;;;;44.67;17.25;;;;;;;;;;5059465;28;20135;-67
2021/10/05 03:10:35;;;;;;;38.75;16.77;;;;;;;;;;5069397;28;20048;-67
2021/10/05 03:13:02;;;;;;;30.73;15.68;;;;;;;;;;5059621;28;20045;-67
2021/10/05 03:15:28;;;;;;;44.30;16.50;;;;;;;;;;5062001;28;20131;-67
2021/10/05 03:17:55;;;;;;;44.20;18.00;;;;;;;;;;5049591;28;20077;-67
2021/10/05 03:20:21;;;;;;;33.20;15.25;;;;;;;;;;5060091;28;20135;-67
2021/10/05 03:22:48;;;;;;;42.58;15.90;;;;;;;;;;5066675;28;20601;-67
2021/10/05 03:25:14;;;;;;;30.83;14.65;;;;;;;;;;5060894;28;20099;-67
2021/10/05 03:27:46;;;;;;;36.45;15.05;;;;;;;;;;5067560;28;20569;-67
2021/10/05 03:30:13;;;;;;;38.05;15.32;;;;;;;;;;5061915;28;20772;-67
2021/10/05 03:32:39;;;;;;;38.20;15.27;;;;;;;;;;5067467;28;20079;-67
2021/10/05 03:35:06;;;;;;;41.60;16.27;;;;;;;;;;5063636;28;20045;-67
2021/10/05 03:37:32;;;;;;;37.92;16.58;;;;;;;;;;5064592;28;20082;-67
2021/10/05 03:39:59;;;;;;;45.08;17.27;;;;;;;;;;5063800;28;20048;-67
2021/10/05 03:42:25;;;;;;;37.63;16.20;;;;;;;;;;5058864;28;20123;-67
2021/10/05 03:44:51;;;;;;;38.03;15.07;;;;;;;;;;5062203;28;20131;-67
2021/10/05 03:47:18;;;;;;;38.65;16.67;;;;;;;;;;5061803;28;20565;-67
2021/10/05 03:49:44;;;;;;;39.13;15.70;;;;;;;;;;5062874;28;20044;-67
2021/10/05 03:52:11;;;;;;;38.83;16.77;;;;;;;;;;5066300;28;20127;-67
2021/10/05 03:54:37;;;;;;;39.92;15.95;;;;;;;;;;5062915;28;20139;-67
2021/10/05 03:57:04;;;;;;;44.67;15.95;;;;;;;;;;5060662;28;20075;-67
2021/10/05 03:59:30;;;;;;;43.53;16.33;;;;;;;;;;5061610;28;20090;-67
2021/10/05 04:01:57;;;;;;;44.00;16.10;;;;;;;;;;5062363;28;20055;-67
2021/10/05 04:04:23;;;;;;;39.17;14.75;;;;;;;;;;5062888;28;20099;-67
2021/10/05 04:06:50;;;;;;;45.30;14.85;;;;;;;;;;5066550;28;20195;-67
2021/10/05 04:09:16;;;;;;;40.23;15.83;;;;;;;;;;5069197;28;20128;-67
2021/10/05 04:11:43;;;;;;;27.92;14.68;;;;;;;;;;5064056;28;20184;-67
2021/10/05 04:14:09;;;;;;;41.40;14.45;;;;;;;;;;5061410;28;20075;-67
2021/10/05 04:16:36;;;;;;;33.65;13.07;;;;;;;;;;5061528;28;20049;-68
2021/10/05 04:19:03;;;;;;;39.25;14.07;;;;;;;;;;5049747;28;20072;-67
2021/10/05 04:21:30;;;;;;;30.25;13.52;;;;;;;;;;5061381;28;20140;-67
2021/10/05 04:23:56;;;;;;;41.42;13.50;;;;;;;;;;5043976;28;20136;-67
2021/10/05 04:26:23;;;;;;;36.45;13.20;;;;;;;;;;5065932;28;20131;-68
2021/10/05 04:28:49;;;;;;;40.50;13.88;;;;;;;;;;5063485;28;20102;-67
2021/10/05 04:31:15;;;;;;;34.03;14.27;;;;;;;;;;5063230;28;20055;-67
2021/10/05 04:33:42;;;;;;;35.47;14.07;;;;;;;;;;5065051;28;20036;-67
2021/10/05 04:36:08;;;;;;;34.67;13.85;;;;;;;;;;5059661;28;20076;-67
2021/10/05 04:38:35;;;;;;;35.00;14.27;;;;;;;;;;5046136;28;20412;-67
2021/10/05 04:41:02;;;;;;;41.38;14.13;;;;;;;;;;5066997;28;20131;-67
2021/10/05 04:43:28;;;;;;;34.03;14.82;;;;;;;;;;5061734;28;20140;-67
2021/10/05 04:45:55;;;;;;;38.53;14.85;;;;;;;;;;5061248;28;20131;-67
2021/10/05 04:48:21;;;;;;;30.30;15.30;;;;;;;;;;5047846;28;20136;-67
2021/10/05 04:50:47;;;;;;;40.15;15.85;;;;;;;;;;5064386;28;20483;-68
2021/10/05 04:53:15;;;;;;;36.35;15.02;;;;;;;;;;5065390;28;20182;-67
2021/10/05 04:55:44;;;;;;;35.83;14.77;;;;;;;;;;5061217;28;20037;-68
2021/10/05 04:58:11;;;;;;;35.88;14.15;;;;;;;;;;5064578;28;20127;-67
2021/10/05 05:00:38;;;;;;;29.70;15.32;;;;;;;;;;5064299;28;20120;-68
2021/10/05 05:03:04;;;;;;;35.80;15.57;;;;;;;;;;5066075;28;20064;-68
2021/10/05 05:05:31;;;;;;;32.65;15.23;;;;;;;;;;5062478;28;20406;-68
2021/10/05 05:08:02;;;;;;;35.15;16.10;;;;;;;;;;5066046;28;20048;-67
2021/10/05 05:10:28;;;;;;;36.20;15.25;;;;;;;;;;5061762;28;20135;-67
2021/10/05 05:12:55;;;;;;;34.00;15.17;;;;;;;;;;5050692;28;20170;-67
2021/10/05 05:15:22;;;;;;;;;;;;;;;;;;5062427;28;20119;-67
2021/10/05 05:17:49;;;;;;;27.92;14.15;;;;;;;;;;5058619;28;19972;-67
2021/10/05 05:20:15;;;;;;;37.37;15.60;;;;;;;;;;5058930;28;20127;-67
2021/10/05 05:22:44;;;;;;;43.40;15.40;;;;;;;;;;5061837;28;20076;-68
2021/10/05 05:25:11;;;;;;;36.88;14.70;;;;;;;;;;5038750;28;20087;-68
2021/10/05 05:27:37;;;;;;;42.85;16.25;;;;;;;;;;5059828;28;20080;-67
2021/10/05 05:30:05;;;;;;;34.78;15.55;;;;;;;;;;5039392;28;20099;-67
2021/10/05 05:32:31;;;;;;;36.80;15.05;;;;;;;;;;5065393;28;20079;-67
2021/10/05 05:34:57;;;;;;;41.92;16.27;;;;;;;;;;5062446;28;20136;-67
2021/10/05 05:37:24;;;;;;;36.67;15.17;;;;;;;;;;5063954;28;20083;-67
2021/10/05 05:39:50;;;;;;;35.92;14.82;;;;;;;;;;5062975;28;20484;-68
2021/10/05 05:42:17;;;;;;;40.47;16.88;;;;;;;;;;5052941;28;20207;-68
2021/10/05 05:44:44;;;;;;;39.23;16.53;;;;;;;;;;5065362;28;20135;-67
2021/10/05 05:47:10;;;;;;;32.92;16.02;;;;;;;;;;5066566;28;20362;-68
2021/10/05 05:49:36;;;;;;;34.65;15.70;;;;;;;;;;5062388;28;20084;-68
2021/10/05 05:52:03;;;;;;;37.38;16.23;;;;;;;;;;5064693;28;20101;-67
2021/10/05 05:54:29;;;;;;;41.03;16.10;;;;;;;;;;5061013;28;20083;-67
2021/10/05 05:56:56;;;;;;;36.95;16.23;;;;;;;;;;5063551;28;20104;-68
2021/10/05 05:59:25;;;;;;;40.22;17.05;;;;;;;;;;5063564;28;20501;-67
2021/10/05 06:01:52;;;;;;;34.28;16.23;;;;;;;;;;5063344;28;20564;-68
2021/10/05 06:04:18;;;;;;;44.55;17.30;;;;;;;;;;5066816;28;20054;-68
2021/10/05 06:06:45;;;;;;;45.30;16.50;;;;;;;;;;5064512;28;20049;-67
2021/10/05 06:09:11;;;;;;;31.77;16.30;;;;;;;;;;5065940;28;20135;-68
2021/10/05 06:11:40;;;;;;;34.45;15.90;;;;;;;;;;5065949;28;20136;-67
2021/10/05 06:14:07;;;;;;;33.13;15.95;;;;;;;;;;5066754;28;20050;-68
2021/10/05 06:16:33;;;;;;;37.67;16.30;;;;;;;;;;5039257;28;20053;-67
2021/10/05 06:19:03;;;;;;;32.95;13.60;;;;;;;;;;5061602;28;20132;-67
2021/10/05 06:21:30;;;;;;;38.53;15.67;;;;;;;;;;5063797;28;20048;-67
2021/10/05 06:23:56;;;;;;;30.77;14.25;;;;;;;;;;5065396;28;20497;-68
2021/10/05 06:26:23;;;;;;;26.45;12.35;;;;;;;;;;5064198;28;20059;-67
2021/10/05 06:28:49;;;;;;;39.30;14.68;;;;;;;;;;5064908;28;20080;-67
2021/10/05 06:31:16;;;;;;;31.30;12.13;;;;;;;;;;5066106;28;20523;-68
2021/10/05 06:33:42;;;;;;;35.45;13.30;;;;;;;;;;5063226;28;20052;-68
2021/10/05 06:36:09;;;;;;;25.20;11.40;;;;;;;;;;5062137;28;20085;-68
2021/10/05 06:38:35;;;;;;;35.83;12.65;;;;;;;;;;5061800;28;20571;-68
2021/10/05 06:41:02;;;;;;;26.20;11.68;;;;;;;;;;5065063;28;20076;-68
2021/10/05 06:43:29;;;;;;;27.13;12.60;;;;;;;;;;5053263;28;20072;-68
2021/10/05 06:45:55;;;;;;;35.35;12.43;;;;;;;;;;5061321;28;20136;-68
2021/10/05 06:48:22;;;;;;;36.92;13.18;;;;;;;;;;5065084;28;20049;-67
2021/10/05 06:50:48;;;;;;;27.77;13.10;;;;;;;;;;5060945;28;20083;-68
2021/10/05 06:53:18;;;;;;;25.98;11.93;;;;;;;;;;5066584;28;20571;-67
2021/10/05 06:55:46;;;;;;;28.85;12.85;;;;;;;;;;5068726;28;20140;-67
2021/10/05 06:58:13;;;;;;;31.35;11.90;;;;;;;;;;5045541;28;20084;-68
2021/10/05 07:00:40;;;;;;;29.52;10.95;;;;;;;;;;5065721;28;20076;-67
2021/10/05 07:03:07;;;;;;;30.97;11.10;;;;;;;;;;5066601;28;20462;-68
2021/10/05 07:05:33;;;;;;;27.52;11.18;;;;;;;;;;5061292;28;20818;-68
2021/10/05 07:08:04;;;;;;;32.38;11.15;;;;;;;;;;5064624;28;20083;-68
2021/10/05 07:10:30;;;;;;;26.33;10.48;;;;;;;;;;5066902;28;20127;-67
2021/10/05 07:12:57;;;;;;;31.33;11.00;;;;;;;;;;5064015;28;20119;-68
2021/10/05 07:15:24;;;;;;;31.77;10.50;;;;;;;;;;5063296;28;20063;-68
2021/10/05 07:17:52;;;;;;;30.70;11.02;;;;;;;;;;5064037;28;20089;-68
2021/10/05 07:20:27;;;;;;;20.67;9.88;;;;;;;;;;5061496;28;20084;-68
2021/10/05 07:22:53;;;;;;;17.67;10.80;;;;;;;;;;5061118;28;20098;-68
2021/10/05 07:25:20;;;;;;;23.40;8.93;;;;;;;;;;5066046;28;20096;-68
2021/10/05 07:27:50;;;;;;;32.78;10.73;;;;;;;;;;5063549;28;20124;-68
2021/10/05 07:30:22;;;;;;;27.55;9.45;;;;;;;;;;5062531;28;20107;-68
2021/10/05 07:32:50;;;;;;;22.75;8.90;;;;;;;;;;5059774;28;20139;-68
2021/10/05 07:35:18;;;;;;;23.20;7.88;;;;;;;;;;5059579;28;20083;-68
2021/10/05 07:37:44;;;;;;;28.50;8.23;;;;;;;;;;5059921;28;20075;-67
2021/10/05 07:40:15;;;;;;;23.00;8.02;;;;;;;;;;5061471;28;20139;-68
2021/10/05 07:42:42;;;;;;;18.85;7.57;;;;;;;;;;5064992;28;20052;-68
2021/10/05 07:45:09;;;;;;;22.35;7.30;;;;;;;;;;5062258;28;20166;-68
2021/10/05 07:47:35;;;;;;;20.30;7.10;;;;;;;;;;5058644;28;20056;-68
2021/10/05 07:50:02;;;;;;;16.23;6.70;;;;;;;;;;5063681;28;20155;-68
2021/10/05 07:52:29;;;;;;;19.25;5.82;;;;;;;;;;5065399;28;20131;-67
2021/10/05 07:54:56;;;;;;;19.25;5.78;;;;;;;;;;5058892;28;20575;-68
2021/10/05 07:57:22;;;;;;;17.55;4.88;;;;;;;;;;5062895;28;20136;-68
2021/10/05 07:59:50;;;;;;;16.27;5.93;;;;;;;;;;5055297;28;20088;-67
2021/10/05 08:02:16;;;;;;;12.70;4.43;;;;;;;;;;5057473;28;20041;-67
2021/10/05 08:04:43;;;;;;;13.50;4.57;;;;;;;;;;5062936;28;20401;-67
2021/10/05 08:07:10;;;;;;;12.80;5.20;;;;;;;;;;5064328;28;20087;-68
2021/10/05 08:09:37;;;;;;;14.02;4.45;;;;;;;;;;5062657;28;20072;-67
2021/10/05 08:12:03;;;;;;;14.43;4.20;;;;;;;;;;5061329;28;20044;-68
2021/10/05 08:14:30;;;;;;;13.52;4.03;;;;;;;;;;5064093;28;20579;-67
2021/10/05 08:16:59;;;;;;;10.27;4.25;;;;;;;;;;5060494;28;20106;-67
2021/10/05 08:19:26;;;;;;;11.45;3.97;;;;;;;;;;5061701;28;20052;-67
2021/10/05 08:21:52;;;;;;;12.73;3.58;;;;;;;;;;5062242;28;20127;-68
2021/10/05 08:24:20;;;;;;;11.13;3.95;;;;;;;;;;5063367;28;20086;-68
2021/10/05 08:26:46;;;;;;;12.82;4.38;;;;;;;;;;5060796;28;20127;-68
2021/10/05 08:29:13;;;;;;;16.25;3.70;;;;;;;;;;5062174;28;20640;-67
2021/10/05 08:31:39;;;;;;;13.75;3.35;;;;;;;;;;5063510;28;20110;-67
2021/10/05 08:34:06;;;;;;;10.27;3.53;;;;;;;;;;5062355;28;20194;-67
2021/10/05 08:36:32;;;;;;;15.13;3.83;;;;;;;;;;5064398;28;20091;-68
2021/10/05 08:39:00;;;;;;;10.27;3.40;;;;;;;;;;5060883;28;20052;-67
2021/10/05 08:41:27;;;;;;;7.00;3.00;;;;;;;;;;5058681;28;20127;-67
2021/10/05 08:43:53;;;;;;;10.07;3.35;;;;;;;;;;5059587;28;20123;-68
2021/10/05 08:46:20;;;;;;;11.25;3.83;;;;;;;;;;5058998;28;20668;-67
2021/10/05 08:48:46;;;;;;;15.10;3.70;;;;;;;;;;5041962;28;20399;-67
2021/10/05 08:51:13;;;;;;;8.55;3.42;;;;;;;;;;5057192;28;20123;-67
2021/10/05 08:53:40;;;;;;;11.70;3.90;;;;;;;;;;5058732;28;20087;-67
2021/10/05 08:56:07;;;;;;;10.63;3.10;;;;;;;;;;5064450;28;20044;-67
2021/10/05 08:58:34;;;;;;;23.10;7.28;;;;;;;;;;5061516;28;20080;-67
2021/10/05 09:01:21;;;;;;;12.90;4.35;;;;;;;;;;5066149;28;20107;-67
2021/10/05 09:03:49;;;;;;;35.70;14.25;;;;;;;;;;5060086;28;20048;-67
2021/10/05 09:06:16;;;;;;;8.18;3.20;;;;;;;;;;5064246;28;20137;-67
2021/10/05 09:08:43;;;;;;;7.10;3.07;;;;;;;;;;5068672;28;20076;-67
2021/10/05 09:11:10;;;;;;;7.63;3.03;;;;;;;;;;5070703;28;20088;-67
2021/10/05 09:13:41;;;;;;;6.03;2.70;;;;;;;;;;5066362;28;20149;-67
2021/10/05 09:16:16;;;;;;;9.15;2.92;;;;;;;;;;5059291;28;20092;-67
2021/10/05 09:19:03;;;;;;;12.18;3.03;;;;;;;;;;5068233;28;20044;-67
2021/10/05 09:21:30;;;;;;;8.60;2.92;;;;;;;;;;5065932;28;20102;-67
2021/10/05 09:24:02;;;;;;;8.85;2.88;;;;;;;;;;5068245;28;20072;-67
2021/10/05 09:26:36;;;;;;;11.60;2.90;;;;;;;;;;5065815;28;20106;-67
2021/10/05 09:29:15;;;;;;;12.50;2.78;;;;;;;;;;5064233;28;20076;-67
2021/10/05 09:32:11;;;;;;;10.02;2.97;;;;;;;;;;5069019;28;20087;-67
2021/10/05 09:34:41;;;;;;;7.93;2.50;;;;;;;;;;5047035;28;20140;-67
2021/10/05 09:37:11;;;;;;;14.57;3.30;;;;;;;;;;5064062;28;20135;-67
2021/10/05 09:39:58;;;;;;;8.70;2.50;;;;;;;;;;5059460;28;20147;-67
2021/10/05 09:42:32;;;;;;;7.45;2.58;;;;;;;;;;5047267;28;20049;-67
2021/10/05 09:45:00;;;;;;;6.75;2.60;;;;;;;;;;5065419;28;20088;-67
2021/10/05 09:47:32;;;;;;;7.80;2.53;;;;;;;;;;5067764;28;20086;-67
2021/10/05 09:49:59;;;;;;;6.63;2.35;;;;;;;;;;5065045;28;20068;-67
2021/10/05 09:52:42;;;;;;;6.40;2.43;;;;;;;;;;5062965;28;20083;-67
2021/10/05 09:55:10;;;;;;;6.22;2.72;;;;;;;;;;5066053;28;20044;-67
2021/10/05 09:57:37;;;;;;;7.07;2.47;;;;;;;;;;5061579;28;20160;-67
2021/10/05 10:00:05;;;;;;;5.25;2.30;;;;;;;;;;5065665;28;20051;-67
2021/10/05 10:02:33;;;;;;;11.10;2.50;;;;;;;;;;5065178;28;20114;-67
2021/10/05 10:05:00;;;;;;;5.50;2.20;;;;;;;;;;5062218;28;20040;-68
2021/10/05 10:07:27;;;;;;;;;;;;;;;;;;5070527;28;20080;-67
2021/10/05 10:09:54;;;;;;;5.75;2.50;;;;;;;;;;5069866;28;19920;-67
2021/10/05 10:12:20;;;;;;;7.80;2.70;;;;;;;;;;5064301;28;20075;-67
2021/10/05 10:14:49;;;;;;;7.57;2.60;;;;;;;;;;5064717;28;20041;-67
2021/10/05 10:17:23;;;;;;;8.77;2.20;;;;;;;;;;5062223;28;20060;-67
2021/10/05 10:19:49;;;;;;;8.55;2.30;;;;;;;;;;5066160;28;20133;-67
2021/10/05 10:22:17;;;;;;;9.20;2.35;;;;;;;;;;5064116;28;20084;-67
2021/10/05 10:24:44;;;;;;;6.17;2.10;;;;;;;;;;5068630;28;20506;-67
2021/10/05 10:27:11;;;;;;;4.97;2.38;;;;;;;;;;5061898;28;20484;-67
2021/10/05 10:30:05;;;;;;;6.47;2.35;;;;;;;;;;5064254;28;20055;-67
2021/10/05 10:32:40;;;;;;;7.22;2.45;;;;;;;;;;5066834;28;20072;-67
2021/10/05 10:35:07;;;;;;;5.40;2.05;;;;;;;;;;5060323;28;20460;-67
2021/10/05 10:37:44;;;;;;;6.47;2.85;;;;;;;;;;5062532;28;20675;-67
2021/10/05 10:40:12;;;;;;;7.35;2.25;;;;;;;;;;5067029;28;20500;-67
2021/10/05 10:42:39;;;;;;;4.65;2.60;;;;;;;;;;5065114;28;20045;-67
2021/10/05 10:45:19;;;;;;;4.85;2.40;;;;;;;;;;5067551;28;20083;-67
2021/10/05 10:47:49;;;;;;;8.63;2.47;;;;;;;;;;5067022;28;20568;-67
2021/10/05 10:50:16;;;;;;;6.38;2.70;;;;;;;;;;5055267;28;20086;-67
2021/10/05 10:52:43;;;;;;;8.23;2.75;;;;;;;;;;5060307;28;20056;-67
2021/10/05 10:55:13;;;;;;;6.18;2.58;;;;;;;;;;5062609;28;20049;-67
2021/10/05 10:57:39;;;;;;;5.85;2.50;;;;;;;;;;5063269;28;20080;-67
2021/10/05 11:00:09;;;;;;;7.90;2.75;;;;;;;;;;5066110;28;20071;-67
2021/10/05 11:02:52;;;;;;;8.00;2.80;;;;;;;;;;5066382;28;20143;-67
2021/10/05 11:05:23;;;;;;;10.70;2.55;;;;;;;;;;5066121;28;20079;-67
2021/10/05 11:07:57;;;;;;;7.10;2.80;;;;;;;;;;5064355;28;20463;-67
2021/10/05 11:10:26;;;;;;;10.82;2.70;;;;;;;;;;5063745;28;20048;-67
2021/10/05 11:12:53;;;;;;;;;;;;;;;;;;5066038;28;20099;-67
2021/10/05 11:15:40;;;;;;;6.68;2.63;;;;;;;;;;5067541;28;19920;-67
2021/10/05 11:18:14;;;;;;;6.85;2.38;;;;;;;;;;5062737;28;20040;-67
2021/10/05 11:20:47;;;;;;;8.93;3.05;;;;;;;;;;5063046;28;20148;-67
2021/10/05 11:23:14;;;;;;;6.70;2.40;;;;;;;;;;5063745;28;20459;-67
2021/10/05 11:25:48;;;;;;;8.07;2.60;;;;;;;;;;5063097;28;20087;-67
2021/10/05 11:28:15;;;;;;;9.85;2.53;;;;;;;;;;5066806;28;20531;-67
2021/10/05 11:30:46;;;;;;;10.48;2.63;;;;;;;;;;5062060;28;20049;-67
2021/10/05 11:33:19;;;;;;;10.38;2.70;;;;;;;;;;5062289;28;20098;-67
2021/10/05 11:35:45;;;;;;;7.38;2.80;;;;;;;;;;5061884;28;20041;-67
2021/10/05 11:38:13;;;;;;;6.63;2.70;;;;;;;;;;5064446;28;20177;-67
2021/10/05 11:40:57;;;;;;;6.85;2.78;;;;;;;;;;5062931;28;20471;-67
2021/10/05 11:43:31;;;;;;;5.90;2.17;;;;;;;;;;5062812;28;20078;-67
2021/10/05 11:45:57;;;;;;;7.40;2.95;;;;;;;;;;5063682;28;20511;-67
2021/10/05 11:48:36;;;;;;;7.85;2.40;;;;;;;;;;5059051;28;20059;-67
2021/10/05 11:51:04;;;;;;;5.95;2.38;;;;;;;;;;5053319;28;20103;-67
2021/10/05 11:53:32;;;;;;;12.38;2.22;;;;;;;;;;5059514;28;20076;-67
2021/10/05 11:55:58;;;;;;;;;;;;;;;;;;5061156;28;20131;-67
2021/10/05 11:58:25;;;;;;;5.57;2.10;;;;;;;;;;5061410;28;19947;-67
2021/10/05 12:00:51;;;;;;;6.13;2.20;;;;;;;;;;5063732;28;20159;-67
2021/10/05 12:03:18;;;;;;;7.70;2.55;;;;;;;;;;5065043;28;20052;-67
2021/10/05 12:05:45;;;;;;;4.20;2.60;;;;;;;;;;5058644;28;20135;-67
2021/10/05 12:08:12;;;;;;;4.72;2.67;;;;;;;;;;5066082;28;20045;-67
2021/10/05 12:10:39;;;;;;;6.72;2.30;;;;;;;;;;5067911;28;20079;-67
2021/10/05 12:13:13;;;;;;;5.78;2.20;;;;;;;;;;5064887;28;20059;-67
2021/10/05 12:15:40;;;;;;;6.78;2.60;;;;;;;;;;5056803;28;20049;-67
2021/10/05 12:18:07;;;;;;;5.80;2.63;;;;;;;;;;5057907;28;20139;-67
2021/10/05 12:21:03;;;;;;;8.05;2.47;;;;;;;;;;5061785;28;20036;-67
2021/10/05 12:23:34;;;;;;;7.15;2.90;;;;;;;;;;5063183;28;20106;-67
2021/10/05 12:26:10;;;;;;;9.25;2.85;;;;;;;;;;5060827;28;20084;-67
2021/10/05 12:28:37;;;;;;;10.40;2.53;;;;;;;;;;5059806;28;20063;-67
2021/10/05 12:31:10;;;;;;;13.98;3.30;;;;;;;;;;5065898;28;20139;-67
2021/10/05 12:33:37;;;;;;;10.68;2.72;;;;;;;;;;5059142;28;20049;-67
2021/10/05 12:36:04;;;;;;;6.80;2.47;;;;;;;;;;5065921;28;20131;-67
2021/10/05 12:38:34;;;;;;;6.30;2.53;;;;;;;;;;5058931;28;20124;-67
2021/10/05 12:41:09;;;;;;;6.07;2.58;;;;;;;;;;5062827;28;20103;-67
2021/10/05 12:43:35;;;;;;;6.80;2.40;;;;;;;;;;5062728;28;20083;-67
2021/10/05 12:46:04;;;;;;;7.53;2.65;;;;;;;;;;5070170;28;20059;-67
2021/10/05 12:48:35;;;;;;;4.95;2.35;;;;;;;;;;5068354;28;20088;-67
2021/10/05 12:51:10;;;;;;;5.78;2.58;;;;;;;;;;5066684;28;20129;-67
2021/10/05 12:53:37;;;;;;;4.20;2.22;;;;;;;;;;5067894;28;20496;-67
2021/10/05 12:56:04;;;;;;;10.67;2.17;;;;;;;;;;5065042;28;20091;-67
2021/10/05 12:58:30;;;;;;;5.83;2.30;;;;;;;;;;5062726;28;20934;-67
2021/10/05 13:00:58;;;;;;;9.18;2.55;;;;;;;;;;5068406;28;20084;-67
2021/10/05 13:03:24;;;;;;;5.72;2.17;;;;;;;;;;5068814;28;20045;-67
2021/10/05 13:05:51;;;;;;;5.55;2.25;;;;;;;;;;5058581;28;20095;-67
2021/10/05 13:08:17;;;;;;;7.18;2.25;;;;;;;;;;5060199;28;20131;-67
2021/10/05 13:10:44;;;;;;;8.38;2.30;;;;;;;;;;5063110;28;20420;-67
2021/10/05 13:13:10;;;;;;;6.28;1.85;;;;;;;;;;5063232;28;20132;-67
2021/10/05 13:15:37;;;;;;;6.57;2.45;;;;;;;;;;5065262;28;20448;-67
2021/10/05 13:18:04;;;;;;;8.07;3.25;;;;;;;;;;5064946;28;20469;-67
2021/10/05 13:20:30;;;;;;;8.85;2.80;;;;;;;;;;5063981;28;20045;-67
2021/10/05 13:22:58;;;;;;;6.57;2.40;;;;;;;;;;5068591;28;20698;-67
2021/10/05 13:25:25;;;;;;;6.60;2.30;;;;;;;;;;5061439;28;20088;-67
2021/10/05 13:27:51;;;;;;;6.20;2.00;;;;;;;;;;5060331;28;20500;-67
2021/10/05 13:30:19;;;;;;;5.73;1.90;;;;;;;;;;5068922;28;20048;-68
2021/10/05 13:32:46;;;;;;;8.40;2.13;;;;;;;;;;5060397;28;20365;-67
2021/10/05 13:35:12;;;;;;;5.80;2.20;;;;;;;;;;5068319;28;20087;-67
2021/10/05 13:37:40;;;;;;;4.82;2.05;;;;;;;;;;5067126;28;20132;-67
2021/10/05 13:40:21;;;;;;;12.20;2.40;;;;;;;;;;5068279;28;20498;-67
2021/10/05 13:42:47;;;;;;;12.60;2.63;;;;;;;;;;5062698;28;20127;-67
2021/10/05 13:45:14;;;;;;;7.95;2.60;;;;;;;;;;5064440;28;20512;-67
2021/10/05 13:47:40;;;;;;;9.85;2.22;;;;;;;;;;5066234;28;20083;-67
2021/10/05 13:50:07;;;;;;;6.80;2.65;;;;;;;;;;5064036;28;20191;-67
2021/10/05 13:52:33;;;;;;;9.88;2.35;;;;;;;;;;5064419;28;20171;-67
2021/10/05 13:55:00;;;;;;;5.28;2.42;;;;;;;;;;5060816;28;20136;-67
2021/10/05 13:57:26;;;;;;;6.53;2.28;;;;;;;;;;5061475;28;20485;-67
2021/10/05 13:59:56;;;;;;;7.43;2.50;;;;;;;;;;5061761;28;20049;-67
2021/10/05 14:02:22;;;;;;;5.38;2.28;;;;;;;;;;5061540;28;20207;-67
2021/10/05 14:04:53;;;;;;;5.43;2.10;;;;;;;;;;5064647;28;20082;-67
2021/10/05 14:07:19;;;;;;;5.35;2.13;;;;;;;;;;5065899;28;20059;-67
2021/10/05 14:09:46;;;;;;;7.77;2.27;;;;;;;;;;5065079;28;20067;-67
2021/10/05 14:12:14;;;;;;;7.05;2.15;;;;;;;;;;5065252;28;20135;-67
2021/10/05 14:14:41;;;;;;;4.40;2.30;;;;;;;;;;5065532;28;20041;-67
2021/10/05 14:17:08;;;;;;;6.78;2.33;;;;;;;;;;5061331;28;20088;-67
2021/10/05 14:19:36;;;;;;;5.70;2.38;;;;;;;;;;5067525;28;20526;-67
2021/10/05 14:22:03;;;;;;;7.63;2.75;;;;;;;;;;5060840;28;20086;-67
2021/10/05 14:24:29;;;;;;;6.93;2.40;;;;;;;;;;5059994;28;20083;-67
2021/10/05 14:26:57;;;;;;;8.90;2.20;;;;;;;;;;5056485;28;20160;-67
2021/10/05 14:29:23;;;;;;;8.43;2.40;;;;;;;;;;5057654;28;20080;-67
2021/10/05 14:31:49;;;;;;;7.63;2.63;;;;;;;;;;5062409;28;20083;-67
2021/10/05 14:34:17;;;;;;;5.40;1.80;;;;;;;;;;5061213;28;20149;-67
2021/10/05 14:36:43;;;;;;;5.53;2.38;;;;;;;;;;5063187;28;20139;-67